sensor_id;sensor_type;location;lat;lon;timestamp;P1;durP1;ratioP1;P2;durP2;ratioP2
80653;SDS011;70020;45.524;10.240;2024-02-23T00:01:07;8.73;;;5.63;;
80653;SDS011;70020;45.524;10.240;2024-02-23T00:03:33;7.63;;;4.30;;
80653;SDS011;70020;45.524;10.240;2024-02-23T00:06:02;6.65;;;4.53;;
80653;SDS011;70020;45.524;10.240;2024-02-23T00:08:28;8.25;;;4.68;;
80653;SDS011;70020;45.524;10.240;2024-02-23T00:10:53;8.30;;;4.82;;
80653;SDS011;70020;45.524;10.240;2024-02-23T00:13:19;10.05;;;4.95;;
80653;SDS011;70020;45.524;10.240;2024-02-23T00:15:45;7.18;;;4.20;;
80653;SDS011;70020;45.524;10.240;2024-02-23T00:18:12;8.18;;;4.97;;
80653;SDS011;70020;45.524;10.240;2024-02-23T00:20:38;9.27;;;5.13;;
80653;SDS011;70020;45.524;10.240;2024-02-23T00:23:04;9.70;;;4.60;;
80653;SDS011;70020;45.524;10.240;2024-02-23T00:25:29;9.05;;;4.07;;
80653;SDS011;70020;45.524;10.240;2024-02-23T00:27:56;8.23;;;4.10;;
80653;SDS011;70020;45.524;10.240;2024-02-23T00:30:22;8.02;;;3.97;;
80653;SDS011;70020;45.524;10.240;2024-02-23T00:32:47;8.50;;;4.65;;
80653;SDS011;70020;45.524;10.240;2024-02-23T00:35:13;6.07;;;3.97;;
80653;SDS011;70020;45.524;10.240;2024-02-23T00:37:39;7.68;;;4.97;;
80653;SDS011;70020;45.524;10.240;2024-02-23T00:40:05;6.55;;;4.15;;
80653;SDS011;70020;45.524;10.240;2024-02-23T00:44:57;8.77;;;5.30;;
80653;SDS011;70020;45.524;10.240;2024-02-23T00:47:23;7.83;;;5.30;;
80653;SDS011;70020;45.524;10.240;2024-02-23T00:49:49;8.02;;;5.47;;
80653;SDS011;70020;45.524;10.240;2024-02-23T00:52:15;9.23;;;5.60;;
80653;SDS011;70020;45.524;10.240;2024-02-23T00:57:06;9.30;;;5.45;;
80653;SDS011;70020;45.524;10.240;2024-02-23T00:59:33;7.30;;;5.07;;
80653;SDS011;70020;45.524;10.240;2024-02-23T01:01:59;8.20;;;5.17;;
80653;SDS011;70020;45.524;10.240;2024-02-23T01:04:25;9.10;;;5.68;;
80653;SDS011;70020;45.524;10.240;2024-02-23T01:06:50;8.60;;;5.63;;
80653;SDS011;70020;45.524;10.240;2024-02-23T01:09:16;9.83;;;6.37;;
80653;SDS011;70020;45.524;10.240;2024-02-23T01:11:45;8.88;;;5.82;;
80653;SDS011;70020;45.524;10.240;2024-02-23T01:14:12;9.85;;;6.80;;
80653;SDS011;70020;45.524;10.240;2024-02-23T01:16:38;9.55;;;5.97;;
80653;SDS011;70020;45.524;10.240;2024-02-23T01:19:04;9.52;;;5.90;;
80653;SDS011;70020;45.524;10.240;2024-02-23T01:21:30;8.52;;;5.85;;
80653;SDS011;70020;45.524;10.240;2024-02-23T01:23:56;10.48;;;6.05;;
80653;SDS011;70020;45.524;10.240;2024-02-23T01:26:22;15.47;;;6.27;;
80653;SDS011;70020;45.524;10.240;2024-02-23T01:31:14;9.82;;;5.45;;
80653;SDS011;70020;45.524;10.240;2024-02-23T01:33:40;9.32;;;5.35;;
80653;SDS011;70020;45.524;10.240;2024-02-23T01:36:06;10.53;;;5.43;;
80653;SDS011;70020;45.524;10.240;2024-02-23T01:38:32;8.25;;;5.00;;
80653;SDS011;70020;45.524;10.240;2024-02-23T01:40:58;7.00;;;4.63;;
80653;SDS011;70020;45.524;10.240;2024-02-23T01:43:24;8.20;;;4.63;;
80653;SDS011;70020;45.524;10.240;2024-02-23T01:45:50;6.13;;;4.60;;
80653;SDS011;70020;45.524;10.240;2024-02-23T01:48:17;9.93;;;4.82;;
80653;SDS011;70020;45.524;10.240;2024-02-23T02:14:21;6.20;;;3.65;;
80653;SDS011;70020;45.524;10.240;2024-02-23T02:16:47;8.77;;;4.50;;
80653;SDS011;70020;45.524;10.240;2024-02-23T02:19:13;7.10;;;4.00;;
80653;SDS011;70020;45.524;10.240;2024-02-23T02:21:40;6.45;;;4.28;;
80653;SDS011;70020;45.524;10.240;2024-02-23T02:24:06;8.32;;;4.18;;
80653;SDS011;70020;45.524;10.240;2024-02-23T02:26:32;7.43;;;3.80;;
80653;SDS011;70020;45.524;10.240;2024-02-23T02:28:58;6.88;;;3.95;;
80653;SDS011;70020;45.524;10.240;2024-02-23T02:31:23;6.97;;;3.38;;
80653;SDS011;70020;45.524;10.240;2024-02-23T02:33:49;6.10;;;4.00;;
80653;SDS011;70020;45.524;10.240;2024-02-23T02:36:15;9.75;;;4.35;;
80653;SDS011;70020;45.524;10.240;2024-02-23T02:38:41;7.00;;;3.80;;
80653;SDS011;70020;45.524;10.240;2024-02-23T02:41:07;7.97;;;4.05;;
80653;SDS011;70020;45.524;10.240;2024-02-23T02:43:34;5.68;;;3.60;;
80653;SDS011;70020;45.524;10.240;2024-02-23T02:46:00;6.50;;;3.53;;
80653;SDS011;70020;45.524;10.240;2024-02-23T02:48:26;6.22;;;3.72;;
80653;SDS011;70020;45.524;10.240;2024-02-23T02:50:51;7.87;;;4.00;;
80653;SDS011;70020;45.524;10.240;2024-02-23T02:53:17;7.35;;;3.45;;
80653;SDS011;70020;45.524;10.240;2024-02-23T02:58:13;9.95;;;3.72;;
80653;SDS011;70020;45.524;10.240;2024-02-23T03:00:39;10.60;;;3.88;;
80653;SDS011;70020;45.524;10.240;2024-02-23T03:03:05;7.63;;;4.05;;
80653;SDS011;70020;45.524;10.240;2024-02-23T03:05:31;7.53;;;4.00;;
80653;SDS011;70020;45.524;10.240;2024-02-23T03:07:57;6.75;;;3.35;;
80653;SDS011;70020;45.524;10.240;2024-02-23T03:10:22;5.17;;;3.60;;
80653;SDS011;70020;45.524;10.240;2024-02-23T03:12:48;7.00;;;3.80;;
80653;SDS011;70020;45.524;10.240;2024-02-23T03:15:14;5.38;;;3.50;;
80653;SDS011;70020;45.524;10.240;2024-02-23T03:17:40;7.13;;;3.27;;
80653;SDS011;70020;45.524;10.240;2024-02-23T03:20:05;9.50;;;3.53;;
80653;SDS011;70020;45.524;10.240;2024-02-23T03:22:34;6.90;;;3.55;;
80653;SDS011;70020;45.524;10.240;2024-02-23T03:25:01;6.50;;;3.45;;
80653;SDS011;70020;45.524;10.240;2024-02-23T03:27:33;8.98;;;3.70;;
80653;SDS011;70020;45.524;10.240;2024-02-23T03:30:00;5.13;;;3.47;;
80653;SDS011;70020;45.524;10.240;2024-02-23T03:32:25;6.17;;;3.60;;
80653;SDS011;70020;45.524;10.240;2024-02-23T03:34:52;6.60;;;3.97;;
80653;SDS011;70020;45.524;10.240;2024-02-23T03:37:18;12.03;;;3.47;;
80653;SDS011;70020;45.524;10.240;2024-02-23T03:39:44;6.68;;;3.65;;
80653;SDS011;70020;45.524;10.240;2024-02-23T03:42:10;6.00;;;3.42;;
80653;SDS011;70020;45.524;10.240;2024-02-23T03:44:36;7.20;;;3.85;;
80653;SDS011;70020;45.524;10.240;2024-02-23T03:47:03;6.03;;;3.50;;
80653;SDS011;70020;45.524;10.240;2024-02-23T03:49:29;6.57;;;3.33;;
80653;SDS011;70020;45.524;10.240;2024-02-23T03:51:55;6.53;;;2.90;;
80653;SDS011;70020;45.524;10.240;2024-02-23T03:54:22;9.55;;;3.38;;
80653;SDS011;70020;45.524;10.240;2024-02-23T03:56:48;4.90;;;3.22;;
80653;SDS011;70020;45.524;10.240;2024-02-23T03:59:14;6.47;;;3.15;;
80653;SDS011;70020;45.524;10.240;2024-02-23T04:01:40;4.07;;;2.73;;
80653;SDS011;70020;45.524;10.240;2024-02-23T04:04:06;6.30;;;3.28;;
80653;SDS011;70020;45.524;10.240;2024-02-23T04:06:32;6.05;;;3.10;;
80653;SDS011;70020;45.524;10.240;2024-02-23T04:08:59;6.60;;;3.10;;
80653;SDS011;70020;45.524;10.240;2024-02-23T04:11:24;6.23;;;2.83;;
80653;SDS011;70020;45.524;10.240;2024-02-23T04:13:50;7.47;;;3.20;;
80653;SDS011;70020;45.524;10.240;2024-02-23T04:16:16;8.05;;;3.65;;
80653;SDS011;70020;45.524;10.240;2024-02-23T04:18:42;7.10;;;3.22;;
80653;SDS011;70020;45.524;10.240;2024-02-23T04:21:08;7.73;;;3.50;;
80653;SDS011;70020;45.524;10.240;2024-02-23T04:23:33;6.77;;;3.40;;
80653;SDS011;70020;45.524;10.240;2024-02-23T04:25:59;5.35;;;3.47;;
80653;SDS011;70020;45.524;10.240;2024-02-23T04:28:25;9.77;;;3.42;;
80653;SDS011;70020;45.524;10.240;2024-02-23T04:30:55;5.63;;;2.90;;
80653;SDS011;70020;45.524;10.240;2024-02-23T04:33:21;5.70;;;3.03;;
80653;SDS011;70020;45.524;10.240;2024-02-23T04:35:47;7.85;;;2.80;;
80653;SDS011;70020;45.524;10.240;2024-02-23T04:38:13;7.70;;;3.40;;
80653;SDS011;70020;45.524;10.240;2024-02-23T04:40:39;5.35;;;3.13;;
80653;SDS011;70020;45.524;10.240;2024-02-23T04:43:05;7.00;;;3.00;;
80653;SDS011;70020;45.524;10.240;2024-02-23T04:45:31;6.93;;;3.58;;
80653;SDS011;70020;45.524;10.240;2024-02-23T04:47:57;7.25;;;3.33;;
80653;SDS011;70020;45.524;10.240;2024-02-23T04:50:23;6.57;;;3.25;;
80653;SDS011;70020;45.524;10.240;2024-02-23T04:52:48;7.00;;;3.23;;
80653;SDS011;70020;45.524;10.240;2024-02-23T04:57:41;7.10;;;3.50;;
80653;SDS011;70020;45.524;10.240;2024-02-23T05:00:07;5.47;;;3.53;;
80653;SDS011;70020;45.524;10.240;2024-02-23T05:02:34;7.07;;;3.55;;
80653;SDS011;70020;45.524;10.240;2024-02-23T05:05:04;7.43;;;3.45;;
80653;SDS011;70020;45.524;10.240;2024-02-23T05:07:31;6.78;;;3.53;;
80653;SDS011;70020;45.524;10.240;2024-02-23T05:09:57;8.65;;;3.75;;
80653;SDS011;70020;45.524;10.240;2024-02-23T05:12:23;7.07;;;3.80;;
80653;SDS011;70020;45.524;10.240;2024-02-23T05:14:49;8.77;;;3.97;;
80653;SDS011;70020;45.524;10.240;2024-02-23T05:17:14;5.30;;;3.33;;
80653;SDS011;70020;45.524;10.240;2024-02-23T05:19:40;5.00;;;3.30;;
80653;SDS011;70020;45.524;10.240;2024-02-23T05:22:06;6.15;;;3.50;;
80653;SDS011;70020;45.524;10.240;2024-02-23T05:24:32;6.15;;;3.88;;
80653;SDS011;70020;45.524;10.240;2024-02-23T05:26:58;6.10;;;3.33;;
80653;SDS011;70020;45.524;10.240;2024-02-23T05:29:27;6.13;;;3.38;;
80653;SDS011;70020;45.524;10.240;2024-02-23T05:31:53;6.40;;;3.67;;
80653;SDS011;70020;45.524;10.240;2024-02-23T05:34:18;10.07;;;3.23;;
80653;SDS011;70020;45.524;10.240;2024-02-23T05:36:45;6.45;;;3.47;;
80653;SDS011;70020;45.524;10.240;2024-02-23T05:39:11;6.13;;;3.70;;
80653;SDS011;70020;45.524;10.240;2024-02-23T05:41:38;7.78;;;3.90;;
80653;SDS011;70020;45.524;10.240;2024-02-23T05:44:04;8.05;;;3.90;;
80653;SDS011;70020;45.524;10.240;2024-02-23T05:46:32;7.75;;;3.95;;
80653;SDS011;70020;45.524;10.240;2024-02-23T05:48:58;7.85;;;3.70;;
80653;SDS011;70020;45.524;10.240;2024-02-23T05:51:24;6.38;;;3.50;;
80653;SDS011;70020;45.524;10.240;2024-02-23T05:53:49;8.18;;;4.40;;
80653;SDS011;70020;45.524;10.240;2024-02-23T05:56:15;6.30;;;3.90;;
80653;SDS011;70020;45.524;10.240;2024-02-23T05:58:41;6.70;;;3.40;;
80653;SDS011;70020;45.524;10.240;2024-02-23T06:01:07;7.63;;;4.13;;
80653;SDS011;70020;45.524;10.240;2024-02-23T06:03:33;7.47;;;3.45;;
80653;SDS011;70020;45.524;10.240;2024-02-23T06:05:59;12.85;;;4.25;;
80653;SDS011;70020;45.524;10.240;2024-02-23T06:08:26;7.70;;;3.15;;
80653;SDS011;70020;45.524;10.240;2024-02-23T06:10:52;8.10;;;3.85;;
80653;SDS011;70020;45.524;10.240;2024-02-23T06:13:18;7.80;;;3.85;;
80653;SDS011;70020;45.524;10.240;2024-02-23T06:15:44;8.30;;;4.10;;
80653;SDS011;70020;45.524;10.240;2024-02-23T06:18:11;7.13;;;4.07;;
80653;SDS011;70020;45.524;10.240;2024-02-23T06:20:37;6.93;;;3.88;;
80653;SDS011;70020;45.524;10.240;2024-02-23T06:23:03;8.67;;;4.00;;
80653;SDS011;70020;45.524;10.240;2024-02-23T06:25:30;8.30;;;4.13;;
80653;SDS011;70020;45.524;10.240;2024-02-23T06:27:56;8.25;;;3.80;;
80653;SDS011;70020;45.524;10.240;2024-02-23T06:30:22;12.57;;;4.10;;
80653;SDS011;70020;45.524;10.240;2024-02-23T06:35:14;7.70;;;3.83;;
80653;SDS011;70020;45.524;10.240;2024-02-23T06:37:41;8.13;;;4.10;;
80653;SDS011;70020;45.524;10.240;2024-02-23T06:40:07;7.13;;;3.83;;
80653;SDS011;70020;45.524;10.240;2024-02-23T06:42:33;9.95;;;4.13;;
80653;SDS011;70020;45.524;10.240;2024-02-23T06:44:59;5.97;;;3.53;;
80653;SDS011;70020;45.524;10.240;2024-02-23T06:49:51;8.77;;;3.97;;
80653;SDS011;70020;45.524;10.240;2024-02-23T06:52:17;7.40;;;3.30;;
80653;SDS011;70020;45.524;10.240;2024-02-23T06:54:43;6.13;;;3.70;;
80653;SDS011;70020;45.524;10.240;2024-02-23T06:57:10;7.38;;;4.10;;
80653;SDS011;70020;45.524;10.240;2024-02-23T06:59:35;7.85;;;3.72;;
80653;SDS011;70020;45.524;10.240;2024-02-23T07:02:01;9.33;;;4.30;;
80653;SDS011;70020;45.524;10.240;2024-02-23T07:04:26;8.73;;;4.40;;
80653;SDS011;70020;45.524;10.240;2024-02-23T07:06:53;8.80;;;4.30;;
80653;SDS011;70020;45.524;10.240;2024-02-23T07:09:19;9.85;;;4.30;;
80653;SDS011;70020;45.524;10.240;2024-02-23T07:11:45;7.07;;;3.80;;
80653;SDS011;70020;45.524;10.240;2024-02-23T07:14:11;7.32;;;3.80;;
80653;SDS011;70020;45.524;10.240;2024-02-23T07:16:39;7.38;;;4.00;;
80653;SDS011;70020;45.524;10.240;2024-02-23T07:19:05;9.05;;;4.10;;
80653;SDS011;70020;45.524;10.240;2024-02-23T07:21:32;6.88;;;4.13;;
80653;SDS011;70020;45.524;10.240;2024-02-23T07:23:58;6.97;;;4.20;;
80653;SDS011;70020;45.524;10.240;2024-02-23T07:26:23;5.75;;;3.58;;
80653;SDS011;70020;45.524;10.240;2024-02-23T07:28:50;8.57;;;3.97;;
80653;SDS011;70020;45.524;10.240;2024-02-23T07:31:16;8.33;;;3.30;;
80653;SDS011;70020;45.524;10.240;2024-02-23T07:33:42;8.48;;;3.40;;
80653;SDS011;70020;45.524;10.240;2024-02-23T07:36:13;6.20;;;3.33;;
80653;SDS011;70020;45.524;10.240;2024-02-23T07:38:42;7.65;;;3.75;;
80653;SDS011;70020;45.524;10.240;2024-02-23T07:41:09;8.13;;;3.30;;
80653;SDS011;70020;45.524;10.240;2024-02-23T07:43:35;15.30;;;4.03;;
80653;SDS011;70020;45.524;10.240;2024-02-23T07:46:01;10.43;;;3.53;;
80653;SDS011;70020;45.524;10.240;2024-02-23T07:48:27;11.85;;;3.83;;
80653;SDS011;70020;45.524;10.240;2024-02-23T07:50:53;11.25;;;3.67;;
80653;SDS011;70020;45.524;10.240;2024-02-23T07:53:19;7.38;;;3.60;;
80653;SDS011;70020;45.524;10.240;2024-02-23T07:55:45;8.02;;;3.58;;
80653;SDS011;70020;45.524;10.240;2024-02-23T07:58:11;6.60;;;3.53;;
80653;SDS011;70020;45.524;10.240;2024-02-23T08:03:03;9.02;;;3.35;;
80653;SDS011;70020;45.524;10.240;2024-02-23T08:05:29;4.30;;;2.92;;
80653;SDS011;70020;45.524;10.240;2024-02-23T08:07:55;11.93;;;4.03;;
80653;SDS011;70020;45.524;10.240;2024-02-23T08:10:21;9.45;;;3.75;;
80653;SDS011;70020;45.524;10.240;2024-02-23T08:15:13;6.00;;;3.60;;
80653;SDS011;70020;45.524;10.240;2024-02-23T08:17:39;7.77;;;3.63;;
80653;SDS011;70020;45.524;10.240;2024-02-23T08:20:06;7.13;;;3.20;;
80653;SDS011;70020;45.524;10.240;2024-02-23T08:22:33;6.78;;;2.90;;
80653;SDS011;70020;45.524;10.240;2024-02-23T08:24:59;6.40;;;3.20;;
80653;SDS011;70020;45.524;10.240;2024-02-23T08:27:25;8.40;;;3.55;;
80653;SDS011;70020;45.524;10.240;2024-02-23T08:29:51;5.03;;;2.78;;
80653;SDS011;70020;45.524;10.240;2024-02-23T08:32:17;4.60;;;2.60;;
80653;SDS011;70020;45.524;10.240;2024-02-23T08:34:43;10.88;;;3.65;;
80653;SDS011;70020;45.524;10.240;2024-02-23T08:37:09;6.22;;;3.28;;
80653;SDS011;70020;45.524;10.240;2024-02-23T08:39:35;4.90;;;2.70;;
80653;SDS011;70020;45.524;10.240;2024-02-23T08:42:02;5.13;;;2.63;;
80653;SDS011;70020;45.524;10.240;2024-02-23T08:44:28;4.90;;;2.92;;
80653;SDS011;70020;45.524;10.240;2024-02-23T08:46:54;9.00;;;2.80;;
80653;SDS011;70020;45.524;10.240;2024-02-23T08:49:19;10.80;;;3.43;;
80653;SDS011;70020;45.524;10.240;2024-02-23T08:51:45;16.33;;;3.25;;
80653;SDS011;70020;45.524;10.240;2024-02-23T08:54:11;9.68;;;3.22;;
80653;SDS011;70020;45.524;10.240;2024-02-23T08:56:37;4.03;;;2.80;;
80653;SDS011;70020;45.524;10.240;2024-02-23T08:59:07;7.13;;;3.67;;
80653;SDS011;70020;45.524;10.240;2024-02-23T09:01:34;7.28;;;3.10;;
80653;SDS011;70020;45.524;10.240;2024-02-23T09:04:00;5.75;;;2.90;;
80653;SDS011;70020;45.524;10.240;2024-02-23T09:06:25;7.00;;;3.45;;
80653;SDS011;70020;45.524;10.240;2024-02-23T09:08:51;5.68;;;2.80;;
80653;SDS011;70020;45.524;10.240;2024-02-23T09:11:17;6.20;;;3.03;;
80653;SDS011;70020;45.524;10.240;2024-02-23T09:13:43;4.43;;;2.53;;
80653;SDS011;70020;45.524;10.240;2024-02-23T09:16:08;4.00;;;2.17;;
80653;SDS011;70020;45.524;10.240;2024-02-23T09:18:35;5.10;;;2.60;;
80653;SDS011;70020;45.524;10.240;2024-02-23T09:21:01;6.68;;;2.88;;
80653;SDS011;70020;45.524;10.240;2024-02-23T09:23:28;4.93;;;2.72;;
80653;SDS011;70020;45.524;10.240;2024-02-23T09:25:54;4.03;;;2.45;;
80653;SDS011;70020;45.524;10.240;2024-02-23T09:28:20;5.50;;;2.67;;
80653;SDS011;70020;45.524;10.240;2024-02-23T09:30:46;6.53;;;3.00;;
80653;SDS011;70020;45.524;10.240;2024-02-23T09:33:12;6.47;;;3.20;;
80653;SDS011;70020;45.524;10.240;2024-02-23T09:35:38;4.40;;;2.40;;
80653;SDS011;70020;45.524;10.240;2024-02-23T09:38:04;4.30;;;2.97;;
80653;SDS011;70020;45.524;10.240;2024-02-23T09:40:30;6.93;;;3.05;;
80653;SDS011;70020;45.524;10.240;2024-02-23T09:42:56;6.65;;;3.00;;
80653;SDS011;70020;45.524;10.240;2024-02-23T09:45:26;4.68;;;2.55;;
80653;SDS011;70020;45.524;10.240;2024-02-23T09:47:56;3.75;;;2.30;;
80653;SDS011;70020;45.524;10.240;2024-02-23T09:50:23;6.20;;;2.42;;
80653;SDS011;70020;45.524;10.240;2024-02-23T09:52:49;4.05;;;2.35;;
80653;SDS011;70020;45.524;10.240;2024-02-23T09:55:21;4.97;;;2.60;;
80653;SDS011;70020;45.524;10.240;2024-02-23T09:57:47;8.18;;;2.42;;
80653;SDS011;70020;45.524;10.240;2024-02-23T10:00:15;8.48;;;2.78;;
80653;SDS011;70020;45.524;10.240;2024-02-23T10:02:42;7.88;;;2.72;;
80653;SDS011;70020;45.524;10.240;2024-02-23T10:05:08;5.05;;;3.10;;
80653;SDS011;70020;45.524;10.240;2024-02-23T10:07:36;6.72;;;3.10;;
80653;SDS011;70020;45.524;10.240;2024-02-23T10:10:01;6.77;;;3.00;;
80653;SDS011;70020;45.524;10.240;2024-02-23T10:12:29;6.30;;;2.80;;
80653;SDS011;70020;45.524;10.240;2024-02-23T10:14:54;5.10;;;2.55;;
80653;SDS011;70020;45.524;10.240;2024-02-23T10:17:20;6.38;;;2.78;;
80653;SDS011;70020;45.524;10.240;2024-02-23T10:19:46;5.18;;;2.90;;
80653;SDS011;70020;45.524;10.240;2024-02-23T10:22:12;4.75;;;2.88;;
80653;SDS011;70020;45.524;10.240;2024-02-23T10:27:04;6.82;;;2.83;;
80653;SDS011;70020;45.524;10.240;2024-02-23T10:29:30;5.47;;;2.75;;
80653;SDS011;70020;45.524;10.240;2024-02-23T10:31:59;4.82;;;3.13;;
80653;SDS011;70020;45.524;10.240;2024-02-23T10:34:26;6.18;;;3.30;;
80653;SDS011;70020;45.524;10.240;2024-02-23T10:36:53;5.63;;;2.75;;
80653;SDS011;70020;45.524;10.240;2024-02-23T10:39:21;4.75;;;3.10;;
80653;SDS011;70020;45.524;10.240;2024-02-23T10:41:52;4.60;;;2.58;;
80653;SDS011;70020;45.524;10.240;2024-02-23T10:44:23;3.10;;;2.33;;
80653;SDS011;70020;45.524;10.240;2024-02-23T10:46:50;3.42;;;2.17;;
80653;SDS011;70020;45.524;10.240;2024-02-23T10:49:17;5.07;;;2.63;;
80653;SDS011;70020;45.524;10.240;2024-02-23T10:51:45;2.70;;;2.00;;
80653;SDS011;70020;45.524;10.240;2024-02-23T10:54:12;3.08;;;1.95;;
80653;SDS011;70020;45.524;10.240;2024-02-23T10:56:38;4.38;;;2.50;;
80653;SDS011;70020;45.524;10.240;2024-02-23T11:01:32;4.40;;;3.00;;
80653;SDS011;70020;45.524;10.240;2024-02-23T11:03:59;4.45;;;3.38;;
80653;SDS011;70020;45.524;10.240;2024-02-23T11:06:28;6.65;;;3.53;;
80653;SDS011;70020;45.524;10.240;2024-02-23T11:09:04;6.18;;;3.72;;
80653;SDS011;70020;45.524;10.240;2024-02-23T11:11:31;6.33;;;3.70;;
80653;SDS011;70020;45.524;10.240;2024-02-23T11:13:57;5.60;;;3.40;;
80653;SDS011;70020;45.524;10.240;2024-02-23T11:16:23;4.73;;;2.43;;
80653;SDS011;70020;45.524;10.240;2024-02-23T11:19:00;4.55;;;2.20;;
80653;SDS011;70020;45.524;10.240;2024-02-23T11:21:33;3.08;;;2.22;;
80653;SDS011;70020;45.524;10.240;2024-02-23T11:24:02;4.03;;;2.50;;
80653;SDS011;70020;45.524;10.240;2024-02-23T11:26:29;2.97;;;2.08;;
80653;SDS011;70020;45.524;10.240;2024-02-23T11:28:55;2.80;;;2.10;;
80653;SDS011;70020;45.524;10.240;2024-02-23T11:31:21;4.70;;;2.55;;
80653;SDS011;70020;45.524;10.240;2024-02-23T11:33:55;3.28;;;2.13;;
80653;SDS011;70020;45.524;10.240;2024-02-23T11:38:56;4.70;;;2.55;;
80653;SDS011;70020;45.524;10.240;2024-02-23T11:41:24;3.92;;;2.60;;
80653;SDS011;70020;45.524;10.240;2024-02-23T11:43:51;5.05;;;3.13;;
80653;SDS011;70020;45.524;10.240;2024-02-23T11:46:18;3.83;;;2.40;;
80653;SDS011;70020;45.524;10.240;2024-02-23T11:51:11;4.53;;;2.77;;
80653;SDS011;70020;45.524;10.240;2024-02-23T11:53:40;3.85;;;2.85;;
80653;SDS011;70020;45.524;10.240;2024-02-23T11:56:06;4.23;;;2.80;;
80653;SDS011;70020;45.524;10.240;2024-02-23T11:58:32;3.78;;;2.70;;
80653;SDS011;70020;45.524;10.240;2024-02-23T12:00:59;5.20;;;2.63;;
80653;SDS011;70020;45.524;10.240;2024-02-23T12:03:27;3.65;;;2.58;;
80653;SDS011;70020;45.524;10.240;2024-02-23T12:05:56;4.03;;;2.92;;
80653;SDS011;70020;45.524;10.240;2024-02-23T12:08:27;3.92;;;2.78;;
80653;SDS011;70020;45.524;10.240;2024-02-23T12:10:55;5.95;;;2.97;;
80653;SDS011;70020;45.524;10.240;2024-02-23T12:13:22;4.60;;;3.13;;
80653;SDS011;70020;45.524;10.240;2024-02-23T12:15:48;5.00;;;2.83;;
80653;SDS011;70020;45.524;10.240;2024-02-23T12:18:18;4.68;;;2.67;;
80653;SDS011;70020;45.524;10.240;2024-02-23T12:20:46;3.17;;;2.42;;
80653;SDS011;70020;45.524;10.240;2024-02-23T12:23:13;5.85;;;2.50;;
80653;SDS011;70020;45.524;10.240;2024-02-23T12:25:38;5.38;;;3.05;;
80653;SDS011;70020;45.524;10.240;2024-02-23T12:28:05;4.72;;;3.58;;
80653;SDS011;70020;45.524;10.240;2024-02-23T12:30:31;6.20;;;4.72;;
80653;SDS011;70020;45.524;10.240;2024-02-23T12:33:04;9.07;;;5.88;;
80653;SDS011;70020;45.524;10.240;2024-02-23T12:35:32;7.55;;;6.00;;
80653;SDS011;70020;45.524;10.240;2024-02-23T12:37:59;8.82;;;6.82;;
80653;SDS011;70020;45.524;10.240;2024-02-23T12:40:25;10.03;;;6.77;;
80653;SDS011;70020;45.524;10.240;2024-02-23T12:42:50;10.73;;;9.20;;
80653;SDS011;70020;45.524;10.240;2024-02-23T12:45:16;10.80;;;8.90;;
80653;SDS011;70020;45.524;10.240;2024-02-23T12:47:41;14.63;;;10.17;;
80653;SDS011;70020;45.524;10.240;2024-02-23T12:50:07;13.73;;;8.98;;
80653;SDS011;70020;45.524;10.240;2024-02-23T12:52:35;11.63;;;9.27;;
80653;SDS011;70020;45.524;10.240;2024-02-23T12:55:00;10.73;;;7.85;;
80653;SDS011;70020;45.524;10.240;2024-02-23T12:57:26;10.48;;;7.43;;
80653;SDS011;70020;45.524;10.240;2024-02-23T12:59:52;11.17;;;7.63;;
80653;SDS011;70020;45.524;10.240;2024-02-23T13:02:18;9.35;;;7.07;;
80653;SDS011;70020;45.524;10.240;2024-02-23T13:04:44;8.90;;;6.68;;
80653;SDS011;70020;45.524;10.240;2024-02-23T13:07:13;6.65;;;5.95;;
80653;SDS011;70020;45.524;10.240;2024-02-23T13:09:42;10.38;;;5.45;;
80653;SDS011;70020;45.524;10.240;2024-02-23T13:12:08;9.15;;;6.47;;
80653;SDS011;70020;45.524;10.240;2024-02-23T13:14:34;7.27;;;5.40;;
80653;SDS011;70020;45.524;10.240;2024-02-23T13:17:00;8.15;;;5.53;;
80653;SDS011;70020;45.524;10.240;2024-02-23T13:19:25;9.10;;;5.90;;
80653;SDS011;70020;45.524;10.240;2024-02-23T13:21:51;7.43;;;4.60;;
80653;SDS011;70020;45.524;10.240;2024-02-23T13:24:17;6.25;;;4.30;;
80653;SDS011;70020;45.524;10.240;2024-02-23T13:26:43;7.40;;;4.90;;
80653;SDS011;70020;45.524;10.240;2024-02-23T13:29:09;7.82;;;5.50;;
80653;SDS011;70020;45.524;10.240;2024-02-23T13:31:35;6.50;;;4.72;;
80653;SDS011;70020;45.524;10.240;2024-02-23T13:34:03;9.00;;;5.03;;
80653;SDS011;70020;45.524;10.240;2024-02-23T13:36:29;7.95;;;4.15;;
80653;SDS011;70020;45.524;10.240;2024-02-23T13:38:55;5.90;;;4.35;;
80653;SDS011;70020;45.524;10.240;2024-02-23T13:41:20;8.73;;;4.32;;
80653;SDS011;70020;45.524;10.240;2024-02-23T13:43:46;6.47;;;4.13;;
80653;SDS011;70020;45.524;10.240;2024-02-23T13:46:12;7.55;;;4.40;;
80653;SDS011;70020;45.524;10.240;2024-02-23T13:48:37;4.97;;;4.20;;
80653;SDS011;70020;45.524;10.240;2024-02-23T13:51:03;6.97;;;4.50;;
80653;SDS011;70020;45.524;10.240;2024-02-23T13:53:30;10.35;;;4.70;;
80653;SDS011;70020;45.524;10.240;2024-02-23T13:55:56;9.35;;;5.10;;
80653;SDS011;70020;45.524;10.240;2024-02-23T13:58:22;7.70;;;5.10;;
80653;SDS011;70020;45.524;10.240;2024-02-23T14:00:48;8.77;;;5.25;;
80653;SDS011;70020;45.524;10.240;2024-02-23T14:03:16;7.70;;;5.03;;
80653;SDS011;70020;45.524;10.240;2024-02-23T14:05:46;7.30;;;4.88;;
80653;SDS011;70020;45.524;10.240;2024-02-23T14:08:12;7.18;;;4.57;;
80653;SDS011;70020;45.524;10.240;2024-02-23T14:10:37;7.43;;;4.43;;
80653;SDS011;70020;45.524;10.240;2024-02-23T14:13:05;10.38;;;5.15;;
80653;SDS011;70020;45.524;10.240;2024-02-23T14:15:31;8.00;;;4.72;;
80653;SDS011;70020;45.524;10.240;2024-02-23T14:17:57;6.68;;;4.60;;
80653;SDS011;70020;45.524;10.240;2024-02-23T14:20:23;6.63;;;4.60;;
80653;SDS011;70020;45.524;10.240;2024-02-23T14:22:49;8.57;;;5.00;;
80653;SDS011;70020;45.524;10.240;2024-02-23T14:25:16;8.10;;;5.25;;
80653;SDS011;70020;45.524;10.240;2024-02-23T14:27:41;8.47;;;4.57;;
80653;SDS011;70020;45.524;10.240;2024-02-23T14:30:08;7.65;;;4.90;;
80653;SDS011;70020;45.524;10.240;2024-02-23T14:32:35;9.73;;;5.85;;
80653;SDS011;70020;45.524;10.240;2024-02-23T14:35:02;8.75;;;4.18;;
80653;SDS011;70020;45.524;10.240;2024-02-23T14:37:29;8.48;;;4.45;;
80653;SDS011;70020;45.524;10.240;2024-02-23T14:39:55;8.95;;;4.43;;
80653;SDS011;70020;45.524;10.240;2024-02-23T14:42:21;7.15;;;5.03;;
80653;SDS011;70020;45.524;10.240;2024-02-23T14:44:48;5.40;;;4.13;;
80653;SDS011;70020;45.524;10.240;2024-02-23T14:47:15;8.75;;;4.88;;
80653;SDS011;70020;45.524;10.240;2024-02-23T14:49:41;6.72;;;4.28;;
80653;SDS011;70020;45.524;10.240;2024-02-23T14:52:06;6.90;;;4.40;;
80653;SDS011;70020;45.524;10.240;2024-02-23T14:54:32;7.10;;;4.65;;
80653;SDS011;70020;45.524;10.240;2024-02-23T14:56:58;8.17;;;4.60;;
80653;SDS011;70020;45.524;10.240;2024-02-23T14:59:24;7.40;;;4.97;;
80653;SDS011;70020;45.524;10.240;2024-02-23T15:01:50;7.90;;;5.23;;
80653;SDS011;70020;45.524;10.240;2024-02-23T15:04:15;7.70;;;4.87;;
80653;SDS011;70020;45.524;10.240;2024-02-23T15:06:42;8.20;;;5.35;;
80653;SDS011;70020;45.524;10.240;2024-02-23T15:09:08;7.90;;;5.38;;
80653;SDS011;70020;45.524;10.240;2024-02-23T15:11:33;8.25;;;5.65;;
80653;SDS011;70020;45.524;10.240;2024-02-23T15:16:27;8.43;;;5.82;;
80653;SDS011;70020;45.524;10.240;2024-02-23T15:18:55;9.43;;;6.30;;
80653;SDS011;70020;45.524;10.240;2024-02-23T15:21:21;9.93;;;6.78;;
80653;SDS011;70020;45.524;10.240;2024-02-23T15:23:47;9.73;;;6.00;;
80653;SDS011;70020;45.524;10.240;2024-02-23T15:26:12;7.93;;;6.10;;